createdAt,value
2019-05-22T00:04:05.778Z,12.85
2019-05-22T00:10:15.400Z,12.89
2019-05-22T00:16:24.440Z,12.86
2019-05-22T00:22:33.795Z,12.83
2019-05-22T00:28:40.652Z,12.72
2019-05-22T00:34:47.167Z,12.78
2019-05-22T00:40:57.803Z,12.82
2019-05-22T00:47:05.630Z,12.82
2019-05-22T00:53:30.113Z,12.79
2019-05-22T00:59:41.020Z,12.75
2019-05-22T01:05:50.784Z,12.80
2019-05-22T01:11:56.696Z,12.71
2019-05-22T01:18:10.437Z,12.76
2019-05-22T01:24:17.114Z,12.76
2019-05-22T01:30:46.169Z,12.77
2019-05-22T01:36:56.611Z,12.79
2019-05-22T01:43:03.835Z,12.86
2019-05-22T01:49:12.379Z,12.89
2019-05-22T01:55:21.075Z,12.93
2019-05-22T02:01:30.602Z,12.92
2019-05-22T02:07:38.197Z,12.88
2019-05-22T02:13:52.068Z,12.78
2019-05-22T02:19:59.130Z,12.79
2019-05-22T02:26:08.522Z,12.81
2019-05-22T02:32:15.262Z,12.72
2019-05-22T02:38:21.431Z,12.55
2019-05-22T02:44:30.298Z,12.41
2019-05-22T02:50:37.892Z,12.40
2019-05-22T02:56:43.940Z,12.39
2019-05-22T03:02:53.818Z,12.37
2019-05-22T03:09:23.400Z,12.34
2019-05-22T03:15:29.990Z,12.33
2019-05-22T03:21:36.562Z,12.35
2019-05-22T03:27:46.013Z,12.35
2019-05-22T03:33:52.699Z,12.30
2019-05-22T03:39:58.985Z,12.20
2019-05-22T03:46:21.049Z,12.24
2019-05-22T03:52:33.036Z,12.27
2019-05-22T03:58:38.870Z,12.30
2019-05-22T04:04:45.256Z,12.32
2019-05-22T04:11:05.250Z,12.29
2019-05-22T04:17:13.453Z,12.32
2019-05-22T04:23:20.271Z,12.32
2019-05-22T04:29:26.514Z,12.34
2019-05-22T04:35:35.099Z,12.27
2019-05-22T04:41:41.698Z,12.27
2019-05-22T04:47:58.587Z,12.28
2019-05-22T04:54:04.503Z,12.29
2019-05-22T05:00:11.903Z,12.33
2019-05-22T05:06:20.062Z,12.30
2019-05-22T05:12:27.024Z,12.36
2019-05-22T05:18:33.509Z,12.46
2019-05-22T05:24:39.706Z,12.45
2019-05-22T05:30:46.591Z,12.43
2019-05-22T05:36:54.996Z,12.45
2019-05-22T05:43:01.872Z,12.51
2019-05-22T05:49:09.735Z,12.55
2019-05-22T05:55:16.000Z,12.59
2019-05-22T06:01:28.699Z,12.44
2019-05-22T06:07:34.997Z,12.37
2019-05-22T06:13:41.666Z,12.34
2019-05-22T06:19:51.137Z,12.46
2019-05-22T06:25:58.731Z,12.48
2019-05-22T06:33:18.155Z,12.36
2019-05-22T06:39:24.362Z,12.47
2019-05-22T06:45:30.329Z,12.58
2019-05-22T06:51:36.374Z,12.61
2019-05-22T06:57:42.580Z,12.61
2019-05-22T07:03:48.670Z,12.76
2019-05-22T07:09:57.333Z,12.90
2019-05-22T07:16:04.780Z,13.02
2019-05-22T07:22:10.917Z,13.05
2019-05-22T07:28:19.469Z,13.11
2019-05-22T07:34:26.365Z,13.20
2019-05-22T07:40:33.777Z,13.08
2019-05-22T07:46:41.286Z,13.14
2019-05-22T07:52:48.163Z,13.20
2019-05-22T07:58:58.891Z,13.30
2019-05-22T08:05:06.303Z,13.51
2019-05-22T08:11:13.567Z,13.67
2019-05-22T08:17:21.677Z,13.96
2019-05-22T08:23:29.682Z,13.99
2019-05-22T08:29:35.909Z,14.22
2019-05-22T08:35:42.535Z,14.33
2019-05-22T08:41:49.454Z,14.44
2019-05-22T08:47:55.370Z,14.61
2019-05-22T08:54:05.802Z,14.73
2019-05-22T09:00:12.600Z,15.06
2019-05-22T09:06:18.624Z,15.27
2019-05-22T09:12:25.748Z,15.48
2019-05-22T09:18:32.357Z,15.43
2019-05-22T09:24:39.126Z,15.58
2019-05-22T09:30:45.246Z,15.98
2019-05-22T09:36:51.367Z,16.22
2019-05-22T09:42:57.377Z,16.10
2019-05-22T09:49:04.144Z,15.90
2019-05-22T09:55:11.086Z,16.15
2019-05-22T10:01:17.678Z,16.34
2019-05-22T10:07:23.627Z,16.46
2019-05-22T10:13:29.574Z,16.10
2019-05-22T10:19:37.245Z,15.89
2019-05-22T10:25:43.115Z,16.21
2019-05-22T10:31:49.119Z,16.34
2019-05-22T10:37:55.928Z,16.75
2019-05-22T10:44:02.492Z,17.10
2019-05-22T10:50:08.748Z,17.14
2019-05-22T10:56:14.740Z,17.23
2019-05-22T11:02:21.298Z,17.61
2019-05-22T11:08:31.819Z,17.60
2019-05-22T11:14:35.898Z,17.99
2019-05-22T11:20:42.015Z,18.20
2019-05-22T11:26:48.063Z,17.91
2019-05-22T11:32:55.765Z,18.13
2019-05-22T11:39:02.001Z,18.05
2019-05-22T11:45:09.225Z,18.21
2019-05-22T11:51:15.780Z,18.47
2019-05-22T11:57:22.614Z,18.92
2019-05-22T12:03:30.953Z,18.81
2019-05-22T12:09:37.233Z,18.91
2019-05-22T12:15:43.531Z,18.92
2019-05-22T12:21:51.196Z,18.75
2019-05-22T12:27:57.400Z,19.39
2019-05-22T12:34:03.937Z,19.52
2019-05-22T12:40:15.832Z,19.82
2019-05-22T12:46:22.167Z,20.23
2019-05-22T12:52:28.376Z,20.45
2019-05-22T12:58:35.010Z,20.86
2019-05-22T13:04:41.167Z,20.59
2019-05-22T13:10:48.537Z,20.35
2019-05-22T13:16:54.555Z,20.60
2019-05-22T13:23:02.123Z,20.90
2019-05-22T13:29:09.601Z,20.56
2019-05-22T13:35:17.797Z,20.54
2019-05-22T13:41:23.924Z,20.71
2019-05-22T13:47:29.885Z,20.57
2019-05-22T13:53:36.656Z,20.68
2019-05-22T13:59:42.724Z,20.99
2019-05-22T14:05:50.135Z,21.01
2019-05-22T14:11:56.986Z,20.89
2019-05-22T14:18:03.426Z,21.37
2019-05-22T14:24:12.109Z,21.58
2019-05-22T14:30:19.889Z,21.47
2019-05-22T14:36:26.387Z,22.11
2019-05-22T14:42:32.439Z,22.46
2019-05-22T14:48:40.479Z,22.10
2019-05-22T14:54:46.554Z,21.75
2019-05-22T15:00:58.553Z,22.04
2019-05-22T15:07:06.156Z,22.52
2019-05-22T15:13:12.507Z,21.93
2019-05-22T15:19:19.116Z,21.85
2019-05-22T15:25:28.635Z,21.81
2019-05-22T15:31:34.527Z,21.98
2019-05-22T15:37:40.808Z,21.70
2019-05-22T15:43:52.474Z,21.47
2019-05-22T15:49:56.977Z,21.30
2019-05-22T15:56:07.410Z,21.29
2019-05-22T16:02:15.420Z,21.20
2019-05-22T16:08:21.910Z,21.42
2019-05-22T16:14:31.524Z,21.28
2019-05-22T16:20:39.879Z,20.88
2019-05-22T16:26:47.176Z,20.87
2019-05-22T16:32:54.646Z,21.03
2019-05-22T16:39:02.393Z,21.31
2019-05-22T16:45:09.415Z,21.28
2019-05-22T16:51:17.791Z,21.63
2019-05-22T16:57:25.775Z,22.31
2019-05-22T17:03:32.345Z,22.22
2019-05-22T17:09:40.829Z,21.99
2019-05-22T17:15:47.400Z,21.75
2019-05-22T17:21:53.915Z,21.50
2019-05-22T17:27:59.867Z,21.33
2019-05-22T17:34:07.974Z,21.17
2019-05-22T17:40:16.217Z,21.03
2019-05-22T17:46:23.251Z,20.93
2019-05-22T17:52:30.154Z,20.94
2019-05-22T17:58:36.187Z,20.96
2019-05-22T18:04:42.112Z,20.96
2019-05-22T18:10:51.186Z,20.87
2019-05-22T18:16:57.060Z,20.86
2019-05-22T18:23:03.275Z,20.81
2019-05-22T18:29:09.703Z,20.79
2019-05-22T18:35:17.059Z,20.65
2019-05-22T18:41:22.993Z,20.46
2019-05-22T18:47:29.383Z,20.25
2019-05-22T18:53:36.041Z,19.84
2019-05-22T18:59:41.902Z,19.32
2019-05-22T19:05:48.495Z,19.00
2019-05-22T19:11:54.415Z,18.69
2019-05-22T19:18:00.330Z,18.41
2019-05-22T19:24:06.568Z,18.29
2019-05-22T19:30:15.393Z,18.12
2019-05-22T19:36:21.549Z,17.79
2019-05-22T19:42:27.802Z,17.45
2019-05-22T19:48:34.097Z,17.22
2019-05-22T19:54:40.673Z,16.99
2019-05-22T20:00:47.883Z,16.81
2019-05-22T20:06:54.259Z,16.67
2019-05-22T20:13:00.479Z,16.48
2019-05-22T20:19:06.431Z,16.33
2019-05-22T20:25:12.791Z,16.06
2019-05-22T20:31:19.387Z,15.81
2019-05-22T20:37:25.365Z,15.66
2019-05-22T20:43:33.117Z,15.54
2019-05-22T20:49:42.125Z,15.41
2019-05-22T20:55:49.685Z,15.15
2019-05-22T21:01:55.632Z,15.00
2019-05-22T21:08:10.358Z,14.92
2019-05-22T21:14:16.189Z,14.89
2019-05-22T21:20:23.854Z,14.87
2019-05-22T21:26:30.262Z,14.76
2019-05-22T21:32:37.711Z,14.74
2019-05-22T21:38:44.163Z,14.68
2019-05-22T21:44:50.698Z,14.60
2019-05-22T21:50:57.155Z,14.42
2019-05-22T21:57:04.686Z,14.20
2019-05-22T22:03:12.120Z,14.09
2019-05-22T22:09:20.158Z,14.01
2019-05-22T22:15:26.920Z,13.76
2019-05-22T22:21:33.627Z,13.58
2019-05-22T22:27:39.880Z,13.50
2019-05-22T22:33:52.617Z,13.32
2019-05-22T22:40:00.523Z,13.23
2019-05-22T22:46:12.993Z,13.12
2019-05-22T22:52:21.209Z,13.11
2019-05-22T22:58:28.536Z,13.11
2019-05-22T23:04:35.420Z,12.99
2019-05-22T23:10:43.069Z,12.83
2019-05-22T23:16:50.229Z,12.73
2019-05-22T23:22:53.659Z,12.71
2019-05-22T23:29:00.162Z,12.63
2019-05-22T23:35:07.579Z,12.46
2019-05-22T23:41:15.518Z,12.45
2019-05-22T23:47:22.199Z,12.44
2019-05-22T23:53:28.412Z,12.29
2019-05-22T23:59:36.897Z,12.18
